createdAt,value
2022-10-30T00:01:43.725Z,14.28
2022-10-30T00:06:46.627Z,14.34
2022-10-30T00:11:50.764Z,14.39
2022-10-30T00:16:53.595Z,14.29
2022-10-30T00:27:00.665Z,14.26
2022-10-30T00:32:03.451Z,14.21
2022-10-30T00:37:06.417Z,14.20
2022-10-30T00:42:13.926Z,14.12
2022-10-30T00:47:20.930Z,14.12
2022-10-30T00:52:26.402Z,14.01
2022-10-30T00:57:31.267Z,13.96
2022-10-30T01:02:34.637Z,13.95
2022-10-30T01:07:37.607Z,13.90
2022-10-30T01:12:43.920Z,13.83
2022-10-30T01:18:03.732Z,13.88
2022-10-30T01:23:21.165Z,13.90
2022-10-30T01:28:41.807Z,14.02
2022-10-30T01:34:07.209Z,14.01
2022-10-30T01:39:15.486Z,13.98
2022-10-30T01:44:24.965Z,14.11
2022-10-30T01:49:51.251Z,14.03
2022-10-30T01:55:01.114Z,14.04
2022-10-30T02:00:07.879Z,13.99
2022-10-30T02:05:23.171Z,13.93
2022-10-30T02:10:26.140Z,13.89
2022-10-30T02:15:32.258Z,13.82
2022-10-30T02:20:37.059Z,13.73
2022-10-30T02:25:39.824Z,13.66
2022-10-30T02:30:44.078Z,13.66
2022-10-30T02:35:48.329Z,13.60
2022-10-30T02:40:51.572Z,13.55
2022-10-30T02:45:55.399Z,13.54
2022-10-30T02:51:01.812Z,13.49
2022-10-30T02:56:06.753Z,13.40
2022-10-30T03:01:11.332Z,13.33
2022-10-30T03:06:17.757Z,13.29
2022-10-30T03:11:21.572Z,13.27
2022-10-30T03:16:26.855Z,13.30
2022-10-30T03:21:32.217Z,13.31
2022-10-30T03:26:34.992Z,13.32
2022-10-30T03:31:42.432Z,13.36
2022-10-30T03:36:56.324Z,13.21
2022-10-30T03:41:59.675Z,13.15
2022-10-30T03:47:03.536Z,13.20
2022-10-30T03:52:12.030Z,13.13
2022-10-30T03:57:14.803Z,13.04
2022-10-30T04:02:31.259Z,12.93
2022-10-30T04:07:35.403Z,12.92
2022-10-30T04:12:38.399Z,12.94
2022-10-30T04:17:41.526Z,12.96
2022-10-30T04:22:45.864Z,13.02
2022-10-30T04:27:54.017Z,12.99
2022-10-30T04:32:59.001Z,13.00
2022-10-30T04:38:05.176Z,13.03
2022-10-30T04:43:11.723Z,13.09
2022-10-30T04:48:16.600Z,13.16
2022-10-30T04:53:22.039Z,13.21
2022-10-30T04:58:29.283Z,13.35
2022-10-30T05:03:39.445Z,13.34
2022-10-30T05:08:49.613Z,13.44
2022-10-30T05:14:11.226Z,13.37
2022-10-30T05:19:14.074Z,13.34
2022-10-30T05:24:26.634Z,13.26
2022-10-30T05:29:30.693Z,13.22
2022-10-30T05:34:34.320Z,13.19
2022-10-30T05:39:38.682Z,13.17
2022-10-30T05:45:01.004Z,13.21
2022-10-30T05:50:07.710Z,13.31
2022-10-30T05:55:13.448Z,13.26
2022-10-30T06:00:25.957Z,13.19
2022-10-30T06:05:31.781Z,13.21
2022-10-30T06:10:36.801Z,13.19
2022-10-30T06:15:46.405Z,13.18
2022-10-30T06:20:49.638Z,13.18
2022-10-30T06:25:53.809Z,13.21
2022-10-30T06:30:58.901Z,13.37
2022-10-30T06:36:01.704Z,13.45
2022-10-30T06:41:06.272Z,13.67
2022-10-30T06:46:41.296Z,13.93
2022-10-30T06:51:45.306Z,14.01
2022-10-30T06:56:52.428Z,14.20
2022-10-30T07:02:14.180Z,14.24
2022-10-30T07:07:32.915Z,14.33
2022-10-30T07:12:37.910Z,14.41
2022-10-30T07:17:57.510Z,14.37
2022-10-30T07:23:04.105Z,14.40
2022-10-30T07:28:09.140Z,14.47
2022-10-30T07:33:17.610Z,14.50
2022-10-30T07:38:46.301Z,14.58
2022-10-30T07:44:05.581Z,14.79
2022-10-30T07:49:23.648Z,15.15
2022-10-30T07:54:33.241Z,15.53
2022-10-30T07:59:49.829Z,15.80
2022-10-30T08:05:11.641Z,15.98
2022-10-30T08:10:36.861Z,16.09
2022-10-30T08:15:41.149Z,16.08
2022-10-30T08:26:00.373Z,15.81
2022-10-30T08:31:06.414Z,15.80
2022-10-30T08:36:28.011Z,15.73
2022-10-30T08:41:31.228Z,15.76
2022-10-30T08:46:35.615Z,15.97
2022-10-30T08:51:38.660Z,16.12
2022-10-30T08:56:43.580Z,16.24
2022-10-30T09:01:51.137Z,16.37
2022-10-30T09:06:57.082Z,16.49
2022-10-30T09:12:35.490Z,16.71
2022-10-30T09:17:39.882Z,16.64
2022-10-30T09:22:43.374Z,16.88
2022-10-30T09:27:47.699Z,17.04
2022-10-30T09:32:57.873Z,17.22
2022-10-30T09:38:13.774Z,17.20
2022-10-30T09:43:28.648Z,17.49
2022-10-30T09:49:15.155Z,17.64
2022-10-30T09:54:26.482Z,17.75
2022-10-30T09:59:41.834Z,17.79
2022-10-30T10:04:51.042Z,17.87
2022-10-30T10:10:19.606Z,17.91
2022-10-30T10:15:39.483Z,17.81
2022-10-30T10:20:48.179Z,17.82
2022-10-30T10:25:54.798Z,17.88
2022-10-30T10:31:08.420Z,18.19
2022-10-30T10:36:25.717Z,18.20
2022-10-30T10:41:39.256Z,18.16
2022-10-30T10:47:03.014Z,18.10
2022-10-30T10:52:15.634Z,18.05
2022-10-30T10:57:26.130Z,18.10
2022-10-30T11:02:41.602Z,18.36
2022-10-30T11:07:48.811Z,18.45
2022-10-30T11:12:51.566Z,18.39
2022-10-30T11:18:01.309Z,18.46
2022-10-30T11:23:32.381Z,18.66
2022-10-30T11:28:43.214Z,18.57
2022-10-30T11:33:45.987Z,18.55
2022-10-30T11:38:50.111Z,18.68
2022-10-30T11:43:53.061Z,18.80
2022-10-30T11:48:56.424Z,18.76
2022-10-30T11:54:02.264Z,18.69
2022-10-30T11:59:07.566Z,18.82
2022-10-30T12:04:23.349Z,18.75
2022-10-30T12:09:27.559Z,18.74
2022-10-30T12:14:30.627Z,18.78
2022-10-30T12:19:33.651Z,18.74
2022-10-30T12:24:40.471Z,18.99
2022-10-30T12:30:07.506Z,18.99
2022-10-30T12:35:23.169Z,18.80
2022-10-30T12:40:31.488Z,18.78
2022-10-30T12:45:41.235Z,18.82
2022-10-30T12:50:48.930Z,18.68
2022-10-30T12:55:59.508Z,18.60
2022-10-30T13:01:10.542Z,18.72
2022-10-30T13:06:17.801Z,18.64
2022-10-30T13:11:34.082Z,18.75
2022-10-30T13:16:36.952Z,18.72
2022-10-30T13:21:48.578Z,18.67
2022-10-30T13:26:57.636Z,18.70
2022-10-30T13:32:12.661Z,18.70
2022-10-30T13:37:22.728Z,18.87
2022-10-30T13:42:40.022Z,18.75
2022-10-30T13:47:50.437Z,18.81
2022-10-30T13:52:58.707Z,18.61
2022-10-30T13:58:11.481Z,18.51
2022-10-30T14:03:25.459Z,18.39
2022-10-30T14:08:36.428Z,18.29
2022-10-30T14:13:54.068Z,18.22
2022-10-30T14:19:01.993Z,18.21
2022-10-30T14:24:12.167Z,18.14
2022-10-30T14:29:45.268Z,18.10
2022-10-30T14:34:58.967Z,18.06
2022-10-30T14:40:38.988Z,18.02
2022-10-30T14:45:49.436Z,17.95
2022-10-30T14:51:05.699Z,17.89
2022-10-30T14:56:24.852Z,17.74
2022-10-30T15:01:37.818Z,17.61
2022-10-30T15:06:53.851Z,17.43
2022-10-30T15:12:35.002Z,17.35
2022-10-30T15:17:41.136Z,17.11
2022-10-30T15:22:44.492Z,16.89
2022-10-30T15:27:52.013Z,16.73
2022-10-30T15:32:55.935Z,16.59
2022-10-30T15:38:01.177Z,16.44
2022-10-30T15:43:08.161Z,16.41
2022-10-30T15:48:23.397Z,16.24
2022-10-30T15:53:31.240Z,16.03
2022-10-30T15:58:37.404Z,15.93
2022-10-30T16:03:43.215Z,15.82
2022-10-30T16:08:49.219Z,15.70
2022-10-30T16:13:54.503Z,15.62
2022-10-30T16:19:01.489Z,15.55
2022-10-30T16:24:05.571Z,15.48
2022-10-30T16:29:24.248Z,15.57
2022-10-30T16:34:31.793Z,15.67
2022-10-30T16:39:35.980Z,15.56
2022-10-30T16:44:40.105Z,15.48
2022-10-30T16:49:49.465Z,15.43
2022-10-30T16:55:00.254Z,15.38
2022-10-30T17:00:06.592Z,15.36
2022-10-30T17:05:12.938Z,15.33
2022-10-30T17:10:32.767Z,15.38
2022-10-30T17:15:37.540Z,15.32
2022-10-30T17:20:40.868Z,15.21
2022-10-30T17:25:43.648Z,15.22
2022-10-30T17:30:48.000Z,15.26
2022-10-30T17:35:51.610Z,15.10
2022-10-30T17:40:54.623Z,14.99
2022-10-30T17:45:59.211Z,15.00
2022-10-30T17:51:02.005Z,14.92
2022-10-30T17:56:12.174Z,14.86
2022-10-30T18:01:18.035Z,14.96
2022-10-30T18:06:22.859Z,14.93
2022-10-30T18:11:27.057Z,14.98
2022-10-30T18:16:31.281Z,14.97
2022-10-30T18:21:34.058Z,14.90
2022-10-30T18:26:40.488Z,14.84
2022-10-30T18:31:45.195Z,14.76
2022-10-30T18:36:48.473Z,14.68
2022-10-30T18:41:51.279Z,14.65
2022-10-30T18:47:00.048Z,14.66
2022-10-30T18:52:05.727Z,14.66
2022-10-30T18:57:10.314Z,14.67
2022-10-30T19:02:24.168Z,14.57
2022-10-30T19:07:27.083Z,14.51
2022-10-30T19:12:29.829Z,14.46
2022-10-30T19:17:33.961Z,14.43
2022-10-30T19:22:36.960Z,14.47
2022-10-30T19:27:39.753Z,14.48
2022-10-30T19:32:44.066Z,14.51
2022-10-30T19:37:47.436Z,14.44
2022-10-30T19:42:50.414Z,14.39
2022-10-30T19:47:56.280Z,14.34
2022-10-30T19:53:00.990Z,14.39
2022-10-30T19:58:05.403Z,14.27
2022-10-30T20:03:11.455Z,14.20
2022-10-30T20:08:16.444Z,14.13
2022-10-30T20:13:20.288Z,14.20
2022-10-30T20:18:30.607Z,14.11
2022-10-30T20:23:33.444Z,14.04
2022-10-30T20:28:37.942Z,13.98
2022-10-30T20:33:42.230Z,13.93
2022-10-30T20:38:45.008Z,13.89
2022-10-30T20:43:53.867Z,13.87
2022-10-30T20:48:58.203Z,13.81
2022-10-30T20:54:01.092Z,13.78
2022-10-30T20:59:03.990Z,13.75
2022-10-30T21:04:08.098Z,13.66
2022-10-30T21:09:10.895Z,13.63
2022-10-30T21:14:13.674Z,13.55
2022-10-30T21:19:17.866Z,13.48
2022-10-30T21:24:20.664Z,13.46
2022-10-30T21:29:23.445Z,13.52
2022-10-30T21:34:27.569Z,13.45
2022-10-30T21:39:30.326Z,13.39
2022-10-30T21:44:33.096Z,13.37
2022-10-30T21:49:37.257Z,13.39
2022-10-30T21:54:40.755Z,13.30
2022-10-30T21:59:43.573Z,13.33
2022-10-30T22:04:49.326Z,13.29
2022-10-30T22:09:53.463Z,13.23
2022-10-30T22:14:57.446Z,13.15
2022-10-30T22:20:01.840Z,13.09
2022-10-30T22:25:04.818Z,13.03
2022-10-30T22:30:08.559Z,13.06
2022-10-30T22:35:12.655Z,12.96
2022-10-30T22:40:15.551Z,12.92
2022-10-30T22:45:18.377Z,12.91
2022-10-30T22:50:22.619Z,12.92
2022-10-30T22:55:25.632Z,12.91
2022-10-30T23:00:28.634Z,13.00
2022-10-30T23:05:32.799Z,13.01
2022-10-30T23:10:35.586Z,12.99
2022-10-30T23:15:39.987Z,13.03
2022-10-30T23:20:45.793Z,12.98
2022-10-30T23:25:48.720Z,12.99
2022-10-30T23:30:51.572Z,13.13
2022-10-30T23:36:00.803Z,13.22
2022-10-30T23:41:03.687Z,13.31
2022-10-30T23:46:07.035Z,13.44
2022-10-30T23:51:11.648Z,13.45
2022-10-30T23:56:14.906Z,13.43
